Terminal Aerodrome Forecast
Issued by NWS Charleston, WV

Current Version | Previous Version | Text Only | Print | Product List | Glossary Off
Versions: 1 2 3 4 5 6 7 8 9 10 11 12 13 14 15 16 17 18 19 20 21 22 23 24 25 26 27

654
FTUS41 KRLX 231739
TAFPKB
TAF
KPKB 231739Z 2318/2418 23015G28KT P6SM BKN035
     FM232300 24015G28KT P6SM BKN024
     FM240600 25013G24KT P6SM OVC018
     FM241100 26010KT P6SM OVC018=

USA.gov is the U.S. government's official web portal to all federal, state and local government web resources and services.